sensor_id;sensor_type;location;lat;lon;timestamp;pressure;altitude;pressure_sealevel;temperature;humidity
35507;BME280;36461;52.018;21.036;2024-02-21T00:00:24;100751.51;;;3.79;92.49
35507;BME280;36461;52.018;21.036;2024-02-21T00:03:12;100749.61;;;3.72;92.69
35507;BME280;36461;52.018;21.036;2024-02-21T00:05:40;100751.48;;;3.72;92.89
35507;BME280;36461;52.018;21.036;2024-02-21T00:08:08;100750.80;;;3.75;93.26
35507;BME280;36461;52.018;21.036;2024-02-21T00:10:37;100752.70;;;3.82;93.54
35507;BME280;36461;52.018;21.036;2024-02-21T00:13:05;100751.84;;;3.91;93.87
35507;BME280;36461;52.018;21.036;2024-02-21T00:15:33;100751.02;;;3.97;94.04
35507;BME280;36461;52.018;21.036;2024-02-21T00:18:01;100752.04;;;4.04;94.09
35507;BME280;36461;52.018;21.036;2024-02-21T00:20:29;100754.61;;;4.08;94.11
35507;BME280;36461;52.018;21.036;2024-02-21T00:22:58;100756.67;;;4.15;94.12
35507;BME280;36461;52.018;21.036;2024-02-21T00:25:26;100755.12;;;4.21;94.09
35507;BME280;36461;52.018;21.036;2024-02-21T00:27:54;100752.05;;;4.26;94.19
35507;BME280;36461;52.018;21.036;2024-02-21T00:30:22;100748.10;;;4.32;94.02
35507;BME280;36461;52.018;21.036;2024-02-21T00:32:50;100746.21;;;4.36;94.04
35507;BME280;36461;52.018;21.036;2024-02-21T00:35:18;100743.80;;;4.40;93.98
35507;BME280;36461;52.018;21.036;2024-02-21T00:37:47;100742.27;;;4.42;93.89
35507;BME280;36461;52.018;21.036;2024-02-21T00:40:15;100739.70;;;4.43;93.65
35507;BME280;36461;52.018;21.036;2024-02-21T00:42:48;100744.66;;;4.46;93.76
35507;BME280;36461;52.018;21.036;2024-02-21T00:45:16;100739.00;;;4.49;93.84
35507;BME280;36461;52.018;21.036;2024-02-21T00:47:44;100736.59;;;4.53;93.71
35507;BME280;36461;52.018;21.036;2024-02-21T00:50:12;100732.48;;;4.54;93.55
35507;BME280;36461;52.018;21.036;2024-02-21T00:52:40;100731.63;;;4.56;93.75
35507;BME280;36461;52.018;21.036;2024-02-21T00:55:08;100730.76;;;4.59;93.78
35507;BME280;36461;52.018;21.036;2024-02-21T00:57:37;100728.70;;;4.61;93.85
35507;BME280;36461;52.018;21.036;2024-02-21T01:00:05;100725.44;;;4.63;93.86
35507;BME280;36461;52.018;21.036;2024-02-21T01:02:33;100727.14;;;4.64;93.81
35507;BME280;36461;52.018;21.036;2024-02-21T01:05:02;100724.41;;;4.64;93.90
35507;BME280;36461;52.018;21.036;2024-02-21T01:07:30;100724.05;;;4.65;93.95
35507;BME280;36461;52.018;21.036;2024-02-21T01:09:58;100721.46;;;4.66;93.74
35507;BME280;36461;52.018;21.036;2024-02-21T01:12:26;100718.90;;;4.66;93.95
35507;BME280;36461;52.018;21.036;2024-02-21T01:14:54;100721.30;;;4.67;93.92
35507;BME280;36461;52.018;21.036;2024-02-21T01:17:22;100714.80;;;4.67;93.90
35507;BME280;36461;52.018;21.036;2024-02-21T01:19:50;100715.81;;;4.71;93.95
35507;BME280;36461;52.018;21.036;2024-02-21T01:22:18;100710.15;;;4.73;93.70
35507;BME280;36461;52.018;21.036;2024-02-21T01:24:46;100708.77;;;4.75;94.06
35507;BME280;36461;52.018;21.036;2024-02-21T01:27:14;100703.80;;;4.77;93.73
35507;BME280;36461;52.018;21.036;2024-02-21T01:29:42;100705.52;;;4.77;93.83
35507;BME280;36461;52.018;21.036;2024-02-21T01:32:10;100702.41;;;4.79;93.76
35507;BME280;36461;52.018;21.036;2024-02-21T01:34:38;100703.26;;;4.81;93.92
35507;BME280;36461;52.018;21.036;2024-02-21T01:37:06;100700.52;;;4.81;93.87
35507;BME280;36461;52.018;21.036;2024-02-21T01:39:35;100699.66;;;4.81;93.95
35507;BME280;36461;52.018;21.036;2024-02-21T01:42:03;100695.38;;;4.81;93.97
35507;BME280;36461;52.018;21.036;2024-02-21T01:44:31;100695.02;;;4.86;94.16
35507;BME280;36461;52.018;21.036;2024-02-21T01:46:59;100690.20;;;4.89;94.15
35507;BME280;36461;52.018;21.036;2024-02-21T01:49:28;100692.23;;;4.93;94.31
35507;BME280;36461;52.018;21.036;2024-02-21T01:51:56;100691.22;;;4.93;94.25
35507;BME280;36461;52.018;21.036;2024-02-21T01:54:24;100689.33;;;4.93;94.00
35507;BME280;36461;52.018;21.036;2024-02-21T01:56:53;100691.21;;;4.95;94.04
35507;BME280;36461;52.018;21.036;2024-02-21T01:59:21;100690.51;;;4.96;94.06
35507;BME280;36461;52.018;21.036;2024-02-21T02:01:49;100688.11;;;4.97;94.16
35507;BME280;36461;52.018;21.036;2024-02-21T02:04:19;100687.08;;;4.99;94.22
35507;BME280;36461;52.018;21.036;2024-02-21T02:06:48;100689.81;;;5.02;94.33
35507;BME280;36461;52.018;21.036;2024-02-21T02:09:17;100689.46;;;5.04;94.29
35507;BME280;36461;52.018;21.036;2024-02-21T02:11:45;100686.02;;;5.04;94.37
35507;BME280;36461;52.018;21.036;2024-02-21T02:14:13;100689.61;;;5.04;94.40
35507;BME280;36461;52.018;21.036;2024-02-21T02:16:42;100689.44;;;5.05;94.55
35507;BME280;36461;52.018;21.036;2024-02-21T02:19:09;100689.29;;;5.05;94.14
35507;BME280;36461;52.018;21.036;2024-02-21T02:21:41;100686.00;;;5.06;94.39
35507;BME280;36461;52.018;21.036;2024-02-21T02:24:10;100683.95;;;5.08;94.34
35507;BME280;36461;52.018;21.036;2024-02-21T02:26:39;100685.30;;;5.09;94.35
35507;BME280;36461;52.018;21.036;2024-02-21T02:29:07;100684.11;;;5.08;94.26
35507;BME280;36461;52.018;21.036;2024-02-21T02:31:35;100683.61;;;5.06;94.32
35507;BME280;36461;52.018;21.036;2024-02-21T02:34:05;100676.75;;;5.06;94.20
35507;BME280;36461;52.018;21.036;2024-02-21T02:36:33;100671.60;;;5.07;94.37
35507;BME280;36461;52.018;21.036;2024-02-21T02:39:01;100668.33;;;5.09;94.57
35507;BME280;36461;52.018;21.036;2024-02-21T02:41:29;100674.84;;;5.09;94.34
35507;BME280;36461;52.018;21.036;2024-02-21T02:43:57;100674.33;;;5.11;94.59
35507;BME280;36461;52.018;21.036;2024-02-21T02:46:25;100672.09;;;5.12;94.32
35507;BME280;36461;52.018;21.036;2024-02-21T02:48:53;100667.65;;;5.08;94.14
35507;BME280;36461;52.018;21.036;2024-02-21T02:51:21;100671.63;;;5.00;93.81
35507;BME280;36461;52.018;21.036;2024-02-21T02:53:49;100668.77;;;4.90;93.57
35507;BME280;36461;52.018;21.036;2024-02-21T02:56:17;100667.08;;;4.83;93.85
35507;BME280;36461;52.018;21.036;2024-02-21T02:58:45;100664.19;;;4.74;93.63
35507;BME280;36461;52.018;21.036;2024-02-21T03:01:14;100662.67;;;4.66;93.65
35507;BME280;36461;52.018;21.036;2024-02-21T03:03:42;100660.48;;;4.59;93.82
35507;BME280;36461;52.018;21.036;2024-02-21T03:06:11;100658.26;;;4.53;93.88
35507;BME280;36461;52.018;21.036;2024-02-21T03:08:39;100662.20;;;4.53;94.31
35507;BME280;36461;52.018;21.036;2024-02-21T03:11:07;100663.91;;;4.54;94.47
35507;BME280;36461;52.018;21.036;2024-02-21T03:13:36;100664.27;;;4.55;94.36
35507;BME280;36461;52.018;21.036;2024-02-21T03:16:04;100662.18;;;4.60;95.12
35507;BME280;36461;52.018;21.036;2024-02-21T03:18:33;100662.16;;;4.65;95.09
35507;BME280;36461;52.018;21.036;2024-02-21T03:28:23;100661.59;;;4.81;95.01
35507;BME280;36461;52.018;21.036;2024-02-21T03:30:50;100662.78;;;4.83;95.13
35507;BME280;36461;52.018;21.036;2024-02-21T03:33:19;100666.89;;;4.87;95.06
35507;BME280;36461;52.018;21.036;2024-02-21T03:35:48;100662.43;;;4.85;94.82
35507;BME280;36461;52.018;21.036;2024-02-21T03:38:16;100664.34;;;4.83;94.75
35507;BME280;36461;52.018;21.036;2024-02-21T03:40:44;100662.11;;;4.80;94.73
35507;BME280;36461;52.018;21.036;2024-02-21T03:43:12;100659.71;;;4.81;95.13
35507;BME280;36461;52.018;21.036;2024-02-21T03:45:40;100660.04;;;4.83;95.25
35507;BME280;36461;52.018;21.036;2024-02-21T03:48:08;100664.67;;;4.84;95.06
35507;BME280;36461;52.018;21.036;2024-02-21T03:50:37;100667.42;;;4.80;94.88
35507;BME280;36461;52.018;21.036;2024-02-21T03:53:05;100663.35;;;4.76;94.94
35507;BME280;36461;52.018;21.036;2024-02-21T03:55:33;100662.48;;;4.70;94.65
35507;BME280;36461;52.018;21.036;2024-02-21T03:58:01;100663.87;;;4.66;94.73
35507;BME280;36461;52.018;21.036;2024-02-21T04:00:29;100661.66;;;4.62;94.66
35507;BME280;36461;52.018;21.036;2024-02-21T04:02:57;100656.71;;;4.57;94.78
35507;BME280;36461;52.018;21.036;2024-02-21T04:05:25;100657.77;;;4.48;94.42
35507;BME280;36461;52.018;21.036;2024-02-21T04:07:53;100660.52;;;4.40;94.43
35507;BME280;36461;52.018;21.036;2024-02-21T04:10:21;100658.15;;;4.34;94.57
35507;BME280;36461;52.018;21.036;2024-02-21T04:12:50;100663.48;;;4.30;94.74
35507;BME280;36461;52.018;21.036;2024-02-21T04:15:18;100660.53;;;4.33;95.15
35507;BME280;36461;52.018;21.036;2024-02-21T04:17:47;100664.65;;;4.34;95.15
35507;BME280;36461;52.018;21.036;2024-02-21T04:20:16;100662.60;;;4.35;95.36
35507;BME280;36461;52.018;21.036;2024-02-21T04:22:44;100659.15;;;4.39;95.46
35507;BME280;36461;52.018;21.036;2024-02-21T04:25:12;100660.18;;;4.41;95.40
35507;BME280;36461;52.018;21.036;2024-02-21T04:27:41;100657.61;;;4.44;95.41
35507;BME280;36461;52.018;21.036;2024-02-21T04:30:09;100654.16;;;4.48;95.67
35507;BME280;36461;52.018;21.036;2024-02-21T04:32:37;100651.77;;;4.52;95.65
35507;BME280;36461;52.018;21.036;2024-02-21T04:35:06;100647.80;;;4.55;95.80
35507;BME280;36461;52.018;21.036;2024-02-21T04:37:34;100648.48;;;4.57;95.56
35507;BME280;36461;52.018;21.036;2024-02-21T04:40:03;100648.30;;;4.59;95.63
35507;BME280;36461;52.018;21.036;2024-02-21T04:42:31;100646.41;;;4.59;95.61
35507;BME280;36461;52.018;21.036;2024-02-21T04:44:59;100647.96;;;4.60;95.49
35507;BME280;36461;52.018;21.036;2024-02-21T04:47:27;100644.53;;;4.59;95.26
35507;BME280;36461;52.018;21.036;2024-02-21T04:49:55;100642.83;;;4.55;94.98
35507;BME280;36461;52.018;21.036;2024-02-21T04:52:23;100643.88;;;4.51;94.98
35507;BME280;36461;52.018;21.036;2024-02-21T04:54:51;100648.34;;;4.47;95.12
35507;BME280;36461;52.018;21.036;2024-02-21T04:57:19;100645.95;;;4.47;95.18
35507;BME280;36461;52.018;21.036;2024-02-21T04:59:47;100645.42;;;4.49;95.34
35507;BME280;36461;52.018;21.036;2024-02-21T05:02:15;100641.15;;;4.46;95.27
35507;BME280;36461;52.018;21.036;2024-02-21T05:04:43;100643.39;;;4.44;95.00
35507;BME280;36461;52.018;21.036;2024-02-21T05:07:12;100636.54;;;4.41;95.33
35507;BME280;36461;52.018;21.036;2024-02-21T05:09:41;100634.13;;;4.39;95.15
35507;BME280;36461;52.018;21.036;2024-02-21T05:12:09;100631.40;;;4.38;95.10
35507;BME280;36461;52.018;21.036;2024-02-21T05:14:38;100634.50;;;4.36;94.89
35507;BME280;36461;52.018;21.036;2024-02-21T05:17:06;100627.47;;;4.36;95.20
35507;BME280;36461;52.018;21.036;2024-02-21T05:19:34;100631.58;;;4.33;95.07
35507;BME280;36461;52.018;21.036;2024-02-21T05:22:02;100629.36;;;4.33;95.11
35507;BME280;36461;52.018;21.036;2024-02-21T05:24:30;100629.02;;;4.32;95.38
35507;BME280;36461;52.018;21.036;2024-02-21T05:26:57;100629.36;;;4.33;95.33
35507;BME280;36461;52.018;21.036;2024-02-21T05:29:25;100630.20;;;4.37;95.60
35507;BME280;36461;52.018;21.036;2024-02-21T05:34:22;100629.69;;;4.38;95.33
35507;BME280;36461;52.018;21.036;2024-02-21T05:36:50;100631.23;;;4.38;95.43
35507;BME280;36461;52.018;21.036;2024-02-21T05:39:18;100627.63;;;4.40;95.42
35507;BME280;36461;52.018;21.036;2024-02-21T05:41:46;100626.41;;;4.43;95.66
35507;BME280;36461;52.018;21.036;2024-02-21T05:44:14;100627.61;;;4.46;95.53
35507;BME280;36461;52.018;21.036;2024-02-21T05:46:42;100627.09;;;4.47;95.91
35507;BME280;36461;52.018;21.036;2024-02-21T05:49:10;100626.73;;;4.49;95.97
35507;BME280;36461;52.018;21.036;2024-02-21T05:51:38;100625.69;;;4.52;95.72
35507;BME280;36461;52.018;21.036;2024-02-21T05:54:06;100623.64;;;4.54;95.51
35507;BME280;36461;52.018;21.036;2024-02-21T05:56:35;100622.27;;;4.57;95.72
35507;BME280;36461;52.018;21.036;2024-02-21T05:59:03;100625.50;;;4.59;95.55
35507;BME280;36461;52.018;21.036;2024-02-21T06:01:31;100624.13;;;4.60;95.50
35507;BME280;36461;52.018;21.036;2024-02-21T06:04:00;100620.52;;;4.59;95.43
35507;BME280;36461;52.018;21.036;2024-02-21T06:06:28;100620.52;;;4.62;95.67
35507;BME280;36461;52.018;21.036;2024-02-21T06:08:56;100617.60;;;4.66;95.84
35507;BME280;36461;52.018;21.036;2024-02-21T06:11:24;100617.24;;;4.69;95.85
35507;BME280;36461;52.018;21.036;2024-02-21T06:13:53;100623.38;;;4.75;95.93
35507;BME280;36461;52.018;21.036;2024-02-21T06:16:21;100622.34;;;4.81;95.78
35507;BME280;36461;52.018;21.036;2024-02-21T06:18:49;100617.52;;;4.83;95.55
35507;BME280;36461;52.018;21.036;2024-02-21T06:21:17;100614.09;;;4.83;95.65
35507;BME280;36461;52.018;21.036;2024-02-21T06:23:45;100613.55;;;4.86;96.00
35507;BME280;36461;52.018;21.036;2024-02-21T06:26:12;100613.87;;;4.92;96.09
35507;BME280;36461;52.018;21.036;2024-02-21T06:28:40;100606.27;;;5.02;96.47
35507;BME280;36461;52.018;21.036;2024-02-21T06:31:08;100601.25;;;5.11;96.53
35507;BME280;36461;52.018;21.036;2024-02-21T06:33:36;100603.77;;;5.18;96.24
35507;BME280;36461;52.018;21.036;2024-02-21T06:36:04;100606.45;;;5.29;96.51
35507;BME280;36461;52.018;21.036;2024-02-21T06:38:32;100610.33;;;5.38;96.46
35507;BME280;36461;52.018;21.036;2024-02-21T06:41:02;100611.64;;;5.47;96.45
35507;BME280;36461;52.018;21.036;2024-02-21T06:43:30;100613.45;;;5.59;96.46
35507;BME280;36461;52.018;21.036;2024-02-21T06:45:59;100608.36;;;5.70;96.47
35507;BME280;36461;52.018;21.036;2024-02-21T06:48:26;100605.71;;;5.79;96.31
35507;BME280;36461;52.018;21.036;2024-02-21T06:50:55;100602.70;;;5.89;96.38
35507;BME280;36461;52.018;21.036;2024-02-21T06:53:23;100607.91;;;6.04;96.59
35507;BME280;36461;52.018;21.036;2024-02-21T06:55:50;100610.35;;;6.18;96.47
35507;BME280;36461;52.018;21.036;2024-02-21T06:58:18;100610.02;;;6.32;96.53
35507;BME280;36461;52.018;21.036;2024-02-21T07:00:46;100613.13;;;6.46;96.28
35507;BME280;36461;52.018;21.036;2024-02-21T07:03:14;100612.85;;;6.56;95.93
35507;BME280;36461;52.018;21.036;2024-02-21T07:05:42;100614.68;;;6.61;95.68
35507;BME280;36461;52.018;21.036;2024-02-21T07:08:10;100614.62;;;6.66;95.62
35507;BME280;36461;52.018;21.036;2024-02-21T07:10:39;100612.46;;;6.72;95.34
35507;BME280;36461;52.018;21.036;2024-02-21T07:13:07;100611.70;;;6.80;95.11
35507;BME280;36461;52.018;21.036;2024-02-21T07:15:35;100608.17;;;6.86;94.83
35507;BME280;36461;52.018;21.036;2024-02-21T07:18:04;100607.94;;;6.91;94.77
35507;BME280;36461;52.018;21.036;2024-02-21T07:20:32;100606.85;;;6.95;94.33
35507;BME280;36461;52.018;21.036;2024-02-21T07:23:01;100612.23;;;7.04;94.47
35507;BME280;36461;52.018;21.036;2024-02-21T07:25:29;100612.39;;;7.17;94.49
35507;BME280;36461;52.018;21.036;2024-02-21T07:27:57;100613.30;;;7.26;94.02
35507;BME280;36461;52.018;21.036;2024-02-21T07:30:24;100611.81;;;7.33;93.90
35507;BME280;36461;52.018;21.036;2024-02-21T07:32:52;100611.27;;;7.34;93.53
35507;BME280;36461;52.018;21.036;2024-02-21T07:35:20;100611.66;;;7.31;92.88
35507;BME280;36461;52.018;21.036;2024-02-21T07:37:48;100609.77;;;7.32;92.82
35507;BME280;36461;52.018;21.036;2024-02-21T07:40:16;100605.61;;;7.34;92.77
35507;BME280;36461;52.018;21.036;2024-02-21T07:42:44;100601.65;;;7.33;92.60
35507;BME280;36461;52.018;21.036;2024-02-21T07:45:18;100600.67;;;7.31;92.66
35507;BME280;36461;52.018;21.036;2024-02-21T07:47:51;100600.34;;;7.29;92.47
35507;BME280;36461;52.018;21.036;2024-02-21T07:50:19;100600.55;;;7.26;92.59
35507;BME280;36461;52.018;21.036;2024-02-21T07:52:47;100595.05;;;7.26;92.53
35507;BME280;36461;52.018;21.036;2024-02-21T07:55:15;100591.23;;;7.29;92.66
35507;BME280;36461;52.018;21.036;2024-02-21T07:57:44;100590.75;;;7.25;92.07
35507;BME280;36461;52.018;21.036;2024-02-21T08:00:12;100591.84;;;7.22;92.26
35507;BME280;36461;52.018;21.036;2024-02-21T08:02:48;100587.01;;;7.23;92.25
35507;BME280;36461;52.018;21.036;2024-02-21T08:05:16;100578.07;;;7.21;92.30
35507;BME280;36461;52.018;21.036;2024-02-21T08:07:45;100575.06;;;7.27;92.50
35507;BME280;36461;52.018;21.036;2024-02-21T08:10:13;100572.73;;;7.33;92.31
35507;BME280;36461;52.018;21.036;2024-02-21T08:12:40;100571.73;;;7.42;92.21
35507;BME280;36461;52.018;21.036;2024-02-21T08:15:09;100568.31;;;7.50;92.24
35507;BME280;36461;52.018;21.036;2024-02-21T08:17:38;100564.91;;;7.59;91.93
35507;BME280;36461;52.018;21.036;2024-02-21T08:20:06;100565.40;;;7.70;91.82
35507;BME280;36461;52.018;21.036;2024-02-21T08:22:37;100561.30;;;7.78;91.29
35507;BME280;36461;52.018;21.036;2024-02-21T08:25:05;100557.17;;;7.87;91.18
35507;BME280;36461;52.018;21.036;2024-02-21T08:27:33;100551.80;;;7.98;91.06
35507;BME280;36461;52.018;21.036;2024-02-21T08:30:01;100552.98;;;8.09;90.74
35507;BME280;36461;52.018;21.036;2024-02-21T08:32:29;100551.42;;;8.18;90.42
35507;BME280;36461;52.018;21.036;2024-02-21T08:34:57;100550.60;;;8.25;90.41
35507;BME280;36461;52.018;21.036;2024-02-21T08:37:26;100547.87;;;8.32;90.34
35507;BME280;36461;52.018;21.036;2024-02-21T08:39:54;100543.34;;;8.35;90.15
35507;BME280;36461;52.018;21.036;2024-02-21T08:42:22;100543.08;;;8.38;89.89
35507;BME280;36461;52.018;21.036;2024-02-21T08:44:51;100543.18;;;8.43;89.64
35507;BME280;36461;52.018;21.036;2024-02-21T08:47:18;100542.29;;;8.44;89.04
35507;BME280;36461;52.018;21.036;2024-02-21T08:49:46;100544.33;;;8.46;89.03
35507;BME280;36461;52.018;21.036;2024-02-21T08:52:15;100539.90;;;8.53;89.04
35507;BME280;36461;52.018;21.036;2024-02-21T08:54:43;100537.48;;;8.60;88.77
35507;BME280;36461;52.018;21.036;2024-02-21T08:57:11;100534.57;;;8.68;88.72
35507;BME280;36461;52.018;21.036;2024-02-21T08:59:41;100537.23;;;8.72;88.45
35507;BME280;36461;52.018;21.036;2024-02-21T09:02:09;100537.75;;;8.80;88.12
35507;BME280;36461;52.018;21.036;2024-02-21T09:04:37;100528.85;;;8.92;87.68
35507;BME280;36461;52.018;21.036;2024-02-21T09:07:05;100532.09;;;9.01;87.60
35507;BME280;36461;52.018;21.036;2024-02-21T09:09:33;100531.23;;;9.08;86.87
35507;BME280;36461;52.018;21.036;2024-02-21T09:12:01;100526.53;;;9.02;86.09
35507;BME280;36461;52.018;21.036;2024-02-21T09:14:34;100530.60;;;9.05;86.73
35507;BME280;36461;52.018;21.036;2024-02-21T09:17:02;100525.43;;;9.20;87.05
35507;BME280;36461;52.018;21.036;2024-02-21T09:19:31;100530.70;;;9.38;87.12
35507;BME280;36461;52.018;21.036;2024-02-21T09:21:59;100527.17;;;9.53;86.41
35507;BME280;36461;52.018;21.036;2024-02-21T09:24:27;100521.04;;;9.58;85.89
35507;BME280;36461;52.018;21.036;2024-02-21T09:26:55;100519.61;;;9.66;85.83
35507;BME280;36461;52.018;21.036;2024-02-21T09:29:23;100517.06;;;9.78;85.82
35507;BME280;36461;52.018;21.036;2024-02-21T09:31:54;100518.67;;;9.88;85.30
35507;BME280;36461;52.018;21.036;2024-02-21T09:34:22;100520.77;;;9.87;84.79
35507;BME280;36461;52.018;21.036;2024-02-21T09:36:51;100518.27;;;9.97;84.62
35507;BME280;36461;52.018;21.036;2024-02-21T09:39:19;100518.94;;;9.98;84.01
35507;BME280;36461;52.018;21.036;2024-02-21T09:41:49;100521.02;;;9.98;83.99
35507;BME280;36461;52.018;21.036;2024-02-21T09:44:19;100521.13;;;9.94;83.76
35507;BME280;36461;52.018;21.036;2024-02-21T09:47:00;100517.62;;;9.82;83.12
35507;BME280;36461;52.018;21.036;2024-02-21T09:49:35;100514.05;;;9.80;83.60
35507;BME280;36461;52.018;21.036;2024-02-21T09:52:06;100513.23;;;9.91;83.90
35507;BME280;36461;52.018;21.036;2024-02-21T09:54:35;100510.71;;;9.89;83.07
35507;BME280;36461;52.018;21.036;2024-02-21T09:57:03;100509.30;;;9.83;82.65
35507;BME280;36461;52.018;21.036;2024-02-21T09:59:33;100508.20;;;9.79;82.46
35507;BME280;36461;52.018;21.036;2024-02-21T10:02:01;100505.09;;;9.79;82.59
35507;BME280;36461;52.018;21.036;2024-02-21T10:04:30;100500.75;;;9.80;82.61
35507;BME280;36461;52.018;21.036;2024-02-21T10:07:00;100497.04;;;9.83;82.52
35507;BME280;36461;52.018;21.036;2024-02-21T10:09:28;100495.60;;;9.85;82.07
35507;BME280;36461;52.018;21.036;2024-02-21T10:12:08;100493.31;;;9.93;82.22
35507;BME280;36461;52.018;21.036;2024-02-21T10:14:37;100490.13;;;10.08;82.49
35507;BME280;36461;52.018;21.036;2024-02-21T10:17:05;100485.98;;;10.14;81.86
35507;BME280;36461;52.018;21.036;2024-02-21T10:19:38;100481.39;;;10.17;81.86
35507;BME280;36461;52.018;21.036;2024-02-21T10:22:09;100482.02;;;10.24;81.93
35507;BME280;36461;52.018;21.036;2024-02-21T10:24:38;100478.34;;;10.21;81.09
35507;BME280;36461;52.018;21.036;2024-02-21T10:27:09;100477.81;;;10.15;81.10
35507;BME280;36461;52.018;21.036;2024-02-21T10:29:40;100477.27;;;10.15;81.20
35507;BME280;36461;52.018;21.036;2024-02-21T10:32:13;100475.25;;;10.08;81.09
35507;BME280;36461;52.018;21.036;2024-02-21T10:34:42;100475.16;;;9.99;80.89
35507;BME280;36461;52.018;21.036;2024-02-21T10:37:11;100472.59;;;9.98;80.97
35507;BME280;36461;52.018;21.036;2024-02-21T10:39:41;100472.26;;;10.04;81.29
35507;BME280;36461;52.018;21.036;2024-02-21T10:42:10;100471.61;;;10.08;81.48
35507;BME280;36461;52.018;21.036;2024-02-21T10:44:39;100470.33;;;10.11;81.34
35507;BME280;36461;52.018;21.036;2024-02-21T10:47:09;100469.09;;;10.00;81.17
35507;BME280;36461;52.018;21.036;2024-02-21T10:49:39;100465.70;;;9.91;81.46
35507;BME280;36461;52.018;21.036;2024-02-21T10:52:12;100466.23;;;9.91;81.66
35507;BME280;36461;52.018;21.036;2024-02-21T10:57:09;100460.83;;;9.86;81.92
35507;BME280;36461;52.018;21.036;2024-02-21T10:59:38;100453.55;;;9.80;81.78
35507;BME280;36461;52.018;21.036;2024-02-21T11:02:09;100448.40;;;9.85;81.82
35507;BME280;36461;52.018;21.036;2024-02-21T11:04:37;100447.11;;;9.94;81.96
35507;BME280;36461;52.018;21.036;2024-02-21T11:07:06;100444.73;;;9.99;82.11
35507;BME280;36461;52.018;21.036;2024-02-21T11:09:38;100438.86;;;10.04;81.99
35507;BME280;36461;52.018;21.036;2024-02-21T11:12:06;100434.95;;;10.08;81.77
35507;BME280;36461;52.018;21.036;2024-02-21T11:14:37;100433.42;;;10.19;82.00
35507;BME280;36461;52.018;21.036;2024-02-21T11:17:20;100432.52;;;10.26;81.88
35507;BME280;36461;52.018;21.036;2024-02-21T11:19:50;100427.48;;;10.21;81.76
35507;BME280;36461;52.018;21.036;2024-02-21T11:22:19;100422.82;;;10.15;81.28
35507;BME280;36461;52.018;21.036;2024-02-21T11:24:48;100418.53;;;10.02;81.11
35507;BME280;36461;52.018;21.036;2024-02-21T11:27:19;100416.79;;;9.97;81.25
35507;BME280;36461;52.018;21.036;2024-02-21T11:29:57;100415.17;;;9.93;81.17
35507;BME280;36461;52.018;21.036;2024-02-21T11:32:26;100415.02;;;9.93;81.45
35507;BME280;36461;52.018;21.036;2024-02-21T11:34:59;100409.89;;;9.97;81.80
35507;BME280;36461;52.018;21.036;2024-02-21T11:37:32;100402.67;;;10.00;82.10
35507;BME280;36461;52.018;21.036;2024-02-21T11:40:02;100406.77;;;10.03;82.19
35507;BME280;36461;52.018;21.036;2024-02-21T11:42:31;100401.58;;;10.03;82.08
35507;BME280;36461;52.018;21.036;2024-02-21T11:44:59;100400.81;;;10.11;82.10
35507;BME280;36461;52.018;21.036;2024-02-21T11:47:28;100398.54;;;10.11;82.18
35507;BME280;36461;52.018;21.036;2024-02-21T11:49:57;100398.61;;;10.09;82.32
35507;BME280;36461;52.018;21.036;2024-02-21T11:52:25;100399.08;;;10.11;82.65
35507;BME280;36461;52.018;21.036;2024-02-21T11:54:54;100398.40;;;10.11;82.50
35507;BME280;36461;52.018;21.036;2024-02-21T11:57:24;100398.77;;;10.04;82.60
35507;BME280;36461;52.018;21.036;2024-02-21T11:59:52;100397.29;;;9.96;82.27
35507;BME280;36461;52.018;21.036;2024-02-21T12:02:27;100394.36;;;9.89;82.47
35507;BME280;36461;52.018;21.036;2024-02-21T12:04:56;100395.61;;;9.88;82.72
35507;BME280;36461;52.018;21.036;2024-02-21T12:07:25;100391.80;;;9.83;82.89
35507;BME280;36461;52.018;21.036;2024-02-21T12:09:53;100388.32;;;9.71;82.60
35507;BME280;36461;52.018;21.036;2024-02-21T12:12:21;100385.67;;;9.61;83.07
35507;BME280;36461;52.018;21.036;2024-02-21T12:14:53;100379.56;;;9.56;83.48
35507;BME280;36461;52.018;21.036;2024-02-21T12:17:21;100372.75;;;9.53;83.45
35507;BME280;36461;52.018;21.036;2024-02-21T12:19:50;100372.76;;;9.47;83.81
35507;BME280;36461;52.018;21.036;2024-02-21T12:22:18;100370.61;;;9.43;83.82
35507;BME280;36461;52.018;21.036;2024-02-21T12:25:04;100370.33;;;9.35;83.91
35507;BME280;36461;52.018;21.036;2024-02-21T12:27:35;100365.96;;;9.30;84.40
35507;BME280;36461;52.018;21.036;2024-02-21T12:30:03;100364.05;;;9.31;84.64
35507;BME280;36461;52.018;21.036;2024-02-21T12:32:37;100364.44;;;9.29;84.52
35507;BME280;36461;52.018;21.036;2024-02-21T12:35:06;100368.29;;;9.20;84.70
35507;BME280;36461;52.018;21.036;2024-02-21T12:37:34;100366.67;;;9.16;85.08
35507;BME280;36461;52.018;21.036;2024-02-21T12:40:06;100361.02;;;9.14;85.17
35507;BME280;36461;52.018;21.036;2024-02-21T12:42:35;100362.95;;;9.13;85.47
35507;BME280;36461;52.018;21.036;2024-02-21T12:45:03;100360.91;;;9.12;85.29
35507;BME280;36461;52.018;21.036;2024-02-21T12:47:31;100357.90;;;9.08;85.53
35507;BME280;36461;52.018;21.036;2024-02-21T12:49:59;100355.36;;;9.06;85.59
35507;BME280;36461;52.018;21.036;2024-02-21T12:52:28;100349.55;;;9.11;86.04
35507;BME280;36461;52.018;21.036;2024-02-21T12:54:56;100345.02;;;9.12;85.62
35507;BME280;36461;52.018;21.036;2024-02-21T12:57:27;100337.38;;;9.14;86.00
35507;BME280;36461;52.018;21.036;2024-02-21T12:59:55;100338.68;;;9.17;85.96
35507;BME280;36461;52.018;21.036;2024-02-21T13:02:23;100336.73;;;9.19;85.94
35507;BME280;36461;52.018;21.036;2024-02-21T13:04:51;100336.70;;;9.20;86.00
35507;BME280;36461;52.018;21.036;2024-02-21T13:07:19;100332.87;;;9.21;86.33
35507;BME280;36461;52.018;21.036;2024-02-21T13:09:47;100329.28;;;9.19;86.33